sensor_id;sensor_type;location;lat;lon;timestamp;temperature;humidity
38436;DHT22;24220;48.168;14.024;2023-08-06T00:02:14;19.40;99.90
38436;DHT22;24220;48.168;14.024;2023-08-06T00:04:41;19.40;99.90
38436;DHT22;24220;48.168;14.024;2023-08-06T00:07:08;19.40;99.90
38436;DHT22;24220;48.168;14.024;2023-08-06T00:09:36;19.40;99.90
38436;DHT22;24220;48.168;14.024;2023-08-06T00:12:03;19.40;99.90
38436;DHT22;24220;48.168;14.024;2023-08-06T00:14:31;19.40;99.90
38436;DHT22;24220;48.168;14.024;2023-08-06T00:17:01;19.40;99.90
38436;DHT22;24220;48.168;14.024;2023-08-06T00:19:34;19.40;99.90
38436;DHT22;24220;48.168;14.024;2023-08-06T00:22:02;19.30;99.90
38436;DHT22;24220;48.168;14.024;2023-08-06T00:24:29;19.40;99.90
38436;DHT22;24220;48.168;14.024;2023-08-06T00:26:56;19.30;99.90
38436;DHT22;24220;48.168;14.024;2023-08-06T00:29:24;19.30;99.90
38436;DHT22;24220;48.168;14.024;2023-08-06T00:31:51;19.30;99.90
38436;DHT22;24220;48.168;14.024;2023-08-06T00:34:19;19.30;99.90
38436;DHT22;24220;48.168;14.024;2023-08-06T00:36:46;19.30;99.90
38436;DHT22;24220;48.168;14.024;2023-08-06T00:39:13;19.30;99.90
38436;DHT22;24220;48.168;14.024;2023-08-06T00:41:43;19.30;99.90
38436;DHT22;24220;48.168;14.024;2023-08-06T00:44:11;19.30;99.90
38436;DHT22;24220;48.168;14.024;2023-08-06T00:46:41;19.30;99.90
38436;DHT22;24220;48.168;14.024;2023-08-06T00:49:10;19.30;99.90
38436;DHT22;24220;48.168;14.024;2023-08-06T00:51:38;19.30;99.90
38436;DHT22;24220;48.168;14.024;2023-08-06T00:54:05;19.30;99.90
38436;DHT22;24220;48.168;14.024;2023-08-06T00:56:34;19.30;99.90
38436;DHT22;24220;48.168;14.024;2023-08-06T00:59:04;19.30;99.90
38436;DHT22;24220;48.168;14.024;2023-08-06T01:01:32;19.30;99.90
38436;DHT22;24220;48.168;14.024;2023-08-06T01:03:59;19.20;99.90
38436;DHT22;24220;48.168;14.024;2023-08-06T01:12:15;19.20;99.90
38436;DHT22;24220;48.168;14.024;2023-08-06T01:17:20;19.20;99.90
38436;DHT22;24220;48.168;14.024;2023-08-06T01:19:53;19.20;99.90
38436;DHT22;24220;48.168;14.024;2023-08-06T01:22:20;19.20;99.90
38436;DHT22;24220;48.168;14.024;2023-08-06T01:24:52;19.20;99.90
38436;DHT22;24220;48.168;14.024;2023-08-06T01:30:13;19.20;99.90
38436;DHT22;24220;48.168;14.024;2023-08-06T01:32:45;19.10;99.90
38436;DHT22;24220;48.168;14.024;2023-08-06T01:35:15;19.10;99.90
38436;DHT22;24220;48.168;14.024;2023-08-06T01:37:44;19.10;99.90
38436;DHT22;24220;48.168;14.024;2023-08-06T01:40:12;19.10;99.90
38436;DHT22;24220;48.168;14.024;2023-08-06T01:42:40;19.10;99.90
38436;DHT22;24220;48.168;14.024;2023-08-06T01:45:08;19.10;99.90
38436;DHT22;24220;48.168;14.024;2023-08-06T01:47:38;19.10;99.90
38436;DHT22;24220;48.168;14.024;2023-08-06T01:50:06;19.10;99.90
38436;DHT22;24220;48.168;14.024;2023-08-06T01:52:35;19.10;99.90
38436;DHT22;24220;48.168;14.024;2023-08-06T01:55:03;19.10;99.90
38436;DHT22;24220;48.168;14.024;2023-08-06T01:57:33;19.10;99.90
38436;DHT22;24220;48.168;14.024;2023-08-06T02:00:03;19.10;99.90
38436;DHT22;24220;48.168;14.024;2023-08-06T02:02:30;19.10;99.90
38436;DHT22;24220;48.168;14.024;2023-08-06T02:04:58;19.00;99.90
38436;DHT22;24220;48.168;14.024;2023-08-06T02:07:25;19.00;99.90
38436;DHT22;24220;48.168;14.024;2023-08-06T02:09:52;19.00;99.90
38436;DHT22;24220;48.168;14.024;2023-08-06T02:12:20;19.00;99.90
38436;DHT22;24220;48.168;14.024;2023-08-06T02:14:47;19.00;99.90
38436;DHT22;24220;48.168;14.024;2023-08-06T02:17:19;19.00;99.90
38436;DHT22;24220;48.168;14.024;2023-08-06T02:19:47;19.00;99.90
38436;DHT22;24220;48.168;14.024;2023-08-06T02:22:14;19.00;99.90
38436;DHT22;24220;48.168;14.024;2023-08-06T02:24:42;19.00;99.90
38436;DHT22;24220;48.168;14.024;2023-08-06T02:27:09;19.00;99.90
38436;DHT22;24220;48.168;14.024;2023-08-06T02:29:36;19.00;99.90
38436;DHT22;24220;48.168;14.024;2023-08-06T02:32:04;19.00;99.90
38436;DHT22;24220;48.168;14.024;2023-08-06T02:34:32;19.00;99.90
38436;DHT22;24220;48.168;14.024;2023-08-06T02:36:59;19.00;99.90
38436;DHT22;24220;48.168;14.024;2023-08-06T02:39:29;19.00;99.90
38436;DHT22;24220;48.168;14.024;2023-08-06T02:41:56;19.00;99.90
38436;DHT22;24220;48.168;14.024;2023-08-06T02:44:27;19.00;99.90
38436;DHT22;24220;48.168;14.024;2023-08-06T02:46:54;19.00;99.90
38436;DHT22;24220;48.168;14.024;2023-08-06T02:49:22;19.00;99.90
38436;DHT22;24220;48.168;14.024;2023-08-06T02:51:49;19.00;99.90
38436;DHT22;24220;48.168;14.024;2023-08-06T02:54:19;19.00;99.90
38436;DHT22;24220;48.168;14.024;2023-08-06T02:56:47;19.00;99.90
38436;DHT22;24220;48.168;14.024;2023-08-06T02:59:14;19.00;99.90
38436;DHT22;24220;48.168;14.024;2023-08-06T03:01:41;19.00;99.90
38436;DHT22;24220;48.168;14.024;2023-08-06T03:04:09;19.00;99.90
38436;DHT22;24220;48.168;14.024;2023-08-06T03:06:39;19.00;99.90
38436;DHT22;24220;48.168;14.024;2023-08-06T03:09:09;19.00;99.90
38436;DHT22;24220;48.168;14.024;2023-08-06T03:11:41;19.00;99.90
38436;DHT22;24220;48.168;14.024;2023-08-06T03:14:08;19.00;99.90
38436;DHT22;24220;48.168;14.024;2023-08-06T03:16:36;19.00;99.90
38436;DHT22;24220;48.168;14.024;2023-08-06T03:19:03;19.00;99.90
38436;DHT22;24220;48.168;14.024;2023-08-06T03:21:33;18.90;99.90
38436;DHT22;24220;48.168;14.024;2023-08-06T03:24:00;18.90;99.90
38436;DHT22;24220;48.168;14.024;2023-08-06T03:26:30;18.90;99.90
38436;DHT22;24220;48.168;14.024;2023-08-06T03:28:57;18.90;99.90
38436;DHT22;24220;48.168;14.024;2023-08-06T03:31:24;18.90;99.90
38436;DHT22;24220;48.168;14.024;2023-08-06T03:33:52;18.90;99.90
38436;DHT22;24220;48.168;14.024;2023-08-06T03:36:19;18.90;99.90
38436;DHT22;24220;48.168;14.024;2023-08-06T03:38:46;18.90;99.90
38436;DHT22;24220;48.168;14.024;2023-08-06T03:41:14;18.90;99.90
38436;DHT22;24220;48.168;14.024;2023-08-06T03:43:41;18.90;99.90
38436;DHT22;24220;48.168;14.024;2023-08-06T03:46:11;18.90;99.90
38436;DHT22;24220;48.168;14.024;2023-08-06T03:48:38;18.90;99.90
38436;DHT22;24220;48.168;14.024;2023-08-06T03:51:06;18.80;99.90
38436;DHT22;24220;48.168;14.024;2023-08-06T03:53:33;18.80;99.90
38436;DHT22;24220;48.168;14.024;2023-08-06T03:56:03;18.80;99.90
38436;DHT22;24220;48.168;14.024;2023-08-06T03:58:30;18.70;99.80
38436;DHT22;24220;48.168;14.024;2023-08-06T04:01:02;18.70;99.60
38436;DHT22;24220;48.168;14.024;2023-08-06T04:03:32;18.70;99.40
38436;DHT22;24220;48.168;14.024;2023-08-06T04:06:02;18.60;99.60
38436;DHT22;24220;48.168;14.024;2023-08-06T04:08:30;18.60;99.80
38436;DHT22;24220;48.168;14.024;2023-08-06T04:10:57;18.60;99.90
38436;DHT22;24220;48.168;14.024;2023-08-06T04:13:24;18.60;99.90
38436;DHT22;24220;48.168;14.024;2023-08-06T04:15:52;18.50;99.90
38436;DHT22;24220;48.168;14.024;2023-08-06T04:18:20;18.50;99.90
38436;DHT22;24220;48.168;14.024;2023-08-06T04:20:48;18.50;99.90
38436;DHT22;24220;48.168;14.024;2023-08-06T04:23:16;18.50;99.90
38436;DHT22;24220;48.168;14.024;2023-08-06T04:25:43;18.40;99.90
38436;DHT22;24220;48.168;14.024;2023-08-06T04:28:13;18.40;99.90
38436;DHT22;24220;48.168;14.024;2023-08-06T04:30:45;18.40;99.90
38436;DHT22;24220;48.168;14.024;2023-08-06T04:33:12;18.40;99.90
38436;DHT22;24220;48.168;14.024;2023-08-06T04:35:40;18.40;99.90
38436;DHT22;24220;48.168;14.024;2023-08-06T04:38:09;18.40;99.90
38436;DHT22;24220;48.168;14.024;2023-08-06T04:40:39;18.40;99.90
38436;DHT22;24220;48.168;14.024;2023-08-06T04:43:06;18.40;99.90
38436;DHT22;24220;48.168;14.024;2023-08-06T04:45:34;18.40;99.90
38436;DHT22;24220;48.168;14.024;2023-08-06T04:48:01;18.40;99.90
38436;DHT22;24220;48.168;14.024;2023-08-06T04:50:31;18.40;99.90
38436;DHT22;24220;48.168;14.024;2023-08-06T04:53:01;18.40;99.90
38436;DHT22;24220;48.168;14.024;2023-08-06T04:55:33;18.40;99.90
38436;DHT22;24220;48.168;14.024;2023-08-06T04:58:00;18.40;99.90
38436;DHT22;24220;48.168;14.024;2023-08-06T05:00:27;18.40;99.90
38436;DHT22;24220;48.168;14.024;2023-08-06T05:02:55;18.40;99.90
38436;DHT22;24220;48.168;14.024;2023-08-06T05:05:24;18.30;99.90
38436;DHT22;24220;48.168;14.024;2023-08-06T05:07:55;18.30;99.90
38436;DHT22;24220;48.168;14.024;2023-08-06T05:10:26;18.30;99.90
38436;DHT22;24220;48.168;14.024;2023-08-06T05:12:54;18.30;99.90
38436;DHT22;24220;48.168;14.024;2023-08-06T05:15:21;18.30;99.90
38436;DHT22;24220;48.168;14.024;2023-08-06T05:17:48;18.30;99.90
38436;DHT22;24220;48.168;14.024;2023-08-06T05:20:16;18.30;99.90
38436;DHT22;24220;48.168;14.024;2023-08-06T05:22:44;18.30;99.90
38436;DHT22;24220;48.168;14.024;2023-08-06T05:25:13;18.30;99.90
38436;DHT22;24220;48.168;14.024;2023-08-06T05:27:43;18.30;99.90
38436;DHT22;24220;48.168;14.024;2023-08-06T05:30:11;18.30;99.90
38436;DHT22;24220;48.168;14.024;2023-08-06T05:32:40;18.30;99.90
38436;DHT22;24220;48.168;14.024;2023-08-06T05:35:08;18.30;99.90
38436;DHT22;24220;48.168;14.024;2023-08-06T05:37:35;18.20;99.80
38436;DHT22;24220;48.168;14.024;2023-08-06T05:40:05;18.20;99.80
38436;DHT22;24220;48.168;14.024;2023-08-06T05:42:32;18.20;99.90
38436;DHT22;24220;48.168;14.024;2023-08-06T05:45:00;18.20;99.90
38436;DHT22;24220;48.168;14.024;2023-08-06T05:47:27;18.20;99.90
38436;DHT22;24220;48.168;14.024;2023-08-06T05:49:54;18.20;99.90
38436;DHT22;24220;48.168;14.024;2023-08-06T05:52:22;18.20;99.90
38436;DHT22;24220;48.168;14.024;2023-08-06T05:54:49;18.20;99.90
38436;DHT22;24220;48.168;14.024;2023-08-06T05:57:17;18.20;99.90
38436;DHT22;24220;48.168;14.024;2023-08-06T05:59:47;18.20;99.90
38436;DHT22;24220;48.168;14.024;2023-08-06T06:02:14;18.20;99.90
38436;DHT22;24220;48.168;14.024;2023-08-06T06:04:44;18.20;99.90
38436;DHT22;24220;48.168;14.024;2023-08-06T06:07:14;18.20;99.90
38436;DHT22;24220;48.168;14.024;2023-08-06T06:09:41;18.20;99.90
38436;DHT22;24220;48.168;14.024;2023-08-06T06:12:11;18.20;99.90
38436;DHT22;24220;48.168;14.024;2023-08-06T06:14:38;18.20;99.90
38436;DHT22;24220;48.168;14.024;2023-08-06T06:17:05;18.20;99.90
38436;DHT22;24220;48.168;14.024;2023-08-06T06:19:33;18.20;99.90
38436;DHT22;24220;48.168;14.024;2023-08-06T06:22:00;18.20;99.90
38436;DHT22;24220;48.168;14.024;2023-08-06T06:24:27;18.20;99.90
38436;DHT22;24220;48.168;14.024;2023-08-06T06:27:00;18.20;99.90
38436;DHT22;24220;48.168;14.024;2023-08-06T06:29:30;18.20;99.90
38436;DHT22;24220;48.168;14.024;2023-08-06T06:31:57;18.20;99.90
38436;DHT22;24220;48.168;14.024;2023-08-06T06:34:24;18.20;99.90
38436;DHT22;24220;48.168;14.024;2023-08-06T06:36:52;18.20;99.90
38436;DHT22;24220;48.168;14.024;2023-08-06T06:39:21;18.30;99.90
38436;DHT22;24220;48.168;14.024;2023-08-06T06:41:48;18.30;99.90
38436;DHT22;24220;48.168;14.024;2023-08-06T06:44:15;18.30;99.90
38436;DHT22;24220;48.168;14.024;2023-08-06T06:46:43;18.30;99.90
38436;DHT22;24220;48.168;14.024;2023-08-06T06:49:12;18.30;99.90
38436;DHT22;24220;48.168;14.024;2023-08-06T06:51:39;18.30;99.90
38436;DHT22;24220;48.168;14.024;2023-08-06T06:54:09;18.30;99.90
38436;DHT22;24220;48.168;14.024;2023-08-06T06:56:37;18.30;99.90
38436;DHT22;24220;48.168;14.024;2023-08-06T06:59:04;18.40;99.90
38436;DHT22;24220;48.168;14.024;2023-08-06T07:01:34;18.40;99.90
38436;DHT22;24220;48.168;14.024;2023-08-06T07:04:03;18.40;99.90
38436;DHT22;24220;48.168;14.024;2023-08-06T07:06:32;18.40;99.90
38436;DHT22;24220;48.168;14.024;2023-08-06T07:08:59;18.40;99.90
38436;DHT22;24220;48.168;14.024;2023-08-06T07:11:29;18.40;99.90
38436;DHT22;24220;48.168;14.024;2023-08-06T07:13:59;18.40;99.90
38436;DHT22;24220;48.168;14.024;2023-08-06T07:16:29;18.50;99.90
38436;DHT22;24220;48.168;14.024;2023-08-06T07:18:56;18.50;99.90
38436;DHT22;24220;48.168;14.024;2023-08-06T07:21:23;18.50;99.90
38436;DHT22;24220;48.168;14.024;2023-08-06T07:23:51;18.50;99.90
38436;DHT22;24220;48.168;14.024;2023-08-06T07:26:20;18.50;99.60
38436;DHT22;24220;48.168;14.024;2023-08-06T07:28:50;18.40;99.50
38436;DHT22;24220;48.168;14.024;2023-08-06T07:31:18;18.40;99.30
38436;DHT22;24220;48.168;14.024;2023-08-06T07:33:47;18.40;99.40
38436;DHT22;24220;48.168;14.024;2023-08-06T07:36:17;18.30;99.40
38436;DHT22;24220;48.168;14.024;2023-08-06T07:38:49;18.30;99.50
38436;DHT22;24220;48.168;14.024;2023-08-06T07:41:23;18.20;99.70
38436;DHT22;24220;48.168;14.024;2023-08-06T07:43:52;18.20;99.70
38436;DHT22;24220;48.168;14.024;2023-08-06T07:46:20;18.10;99.90
38436;DHT22;24220;48.168;14.024;2023-08-06T07:48:47;18.10;99.90
38436;DHT22;24220;48.168;14.024;2023-08-06T07:51:19;18.10;99.90
38436;DHT22;24220;48.168;14.024;2023-08-06T07:53:46;18.00;99.90
38436;DHT22;24220;48.168;14.024;2023-08-06T07:56:14;18.00;99.90
38436;DHT22;24220;48.168;14.024;2023-08-06T07:58:41;18.00;99.90
38436;DHT22;24220;48.168;14.024;2023-08-06T08:01:08;17.90;99.90
38436;DHT22;24220;48.168;14.024;2023-08-06T08:03:36;17.90;99.90
38436;DHT22;24220;48.168;14.024;2023-08-06T08:06:04;17.80;99.90
38436;DHT22;24220;48.168;14.024;2023-08-06T08:08:31;17.80;99.90
38436;DHT22;24220;48.168;14.024;2023-08-06T08:10:58;17.80;99.90
38436;DHT22;24220;48.168;14.024;2023-08-06T08:13:30;17.70;99.90
38436;DHT22;24220;48.168;14.024;2023-08-06T08:16:01;17.70;99.90
38436;DHT22;24220;48.168;14.024;2023-08-06T08:18:31;17.70;99.90
38436;DHT22;24220;48.168;14.024;2023-08-06T08:21:03;17.70;99.90
38436;DHT22;24220;48.168;14.024;2023-08-06T08:23:33;17.70;99.90
38436;DHT22;24220;48.168;14.024;2023-08-06T08:26:00;17.70;99.90
38436;DHT22;24220;48.168;14.024;2023-08-06T08:28:29;17.70;99.90
38436;DHT22;24220;48.168;14.024;2023-08-06T08:30:57;17.70;99.90
38436;DHT22;24220;48.168;14.024;2023-08-06T08:33:24;17.70;99.90
38436;DHT22;24220;48.168;14.024;2023-08-06T08:35:52;17.70;99.90
38436;DHT22;24220;48.168;14.024;2023-08-06T08:38:19;17.70;99.90
38436;DHT22;24220;48.168;14.024;2023-08-06T08:40:47;17.70;99.90
38436;DHT22;24220;48.168;14.024;2023-08-06T08:43:24;17.80;99.90
38436;DHT22;24220;48.168;14.024;2023-08-06T08:45:52;17.80;99.90
38436;DHT22;24220;48.168;14.024;2023-08-06T08:48:19;17.80;99.90
38436;DHT22;24220;48.168;14.024;2023-08-06T08:50:48;17.90;99.90
38436;DHT22;24220;48.168;14.024;2023-08-06T08:53:18;17.90;99.90
38436;DHT22;24220;48.168;14.024;2023-08-06T08:55:51;18.00;99.90
38436;DHT22;24220;48.168;14.024;2023-08-06T08:58:20;18.00;99.90
38436;DHT22;24220;48.168;14.024;2023-08-06T09:00:47;18.00;99.90
38436;DHT22;24220;48.168;14.024;2023-08-06T09:03:17;18.10;99.90
38436;DHT22;24220;48.168;14.024;2023-08-06T09:05:45;18.10;99.90
38436;DHT22;24220;48.168;14.024;2023-08-06T09:08:27;18.20;99.90
38436;DHT22;24220;48.168;14.024;2023-08-06T09:10:56;18.20;99.90
38436;DHT22;24220;48.168;14.024;2023-08-06T09:13:24;18.30;99.90
38436;DHT22;24220;48.168;14.024;2023-08-06T09:15:51;18.30;99.90
38436;DHT22;24220;48.168;14.024;2023-08-06T09:18:25;18.40;99.90
38436;DHT22;24220;48.168;14.024;2023-08-06T09:20:56;18.40;99.90
38436;DHT22;24220;48.168;14.024;2023-08-06T09:23:30;18.50;99.90
38436;DHT22;24220;48.168;14.024;2023-08-06T09:25:58;18.50;99.90
38436;DHT22;24220;48.168;14.024;2023-08-06T09:28:37;18.50;99.90
38436;DHT22;24220;48.168;14.024;2023-08-06T09:31:09;18.60;99.90
38436;DHT22;24220;48.168;14.024;2023-08-06T09:33:37;18.60;99.90
38436;DHT22;24220;48.168;14.024;2023-08-06T09:36:11;18.70;99.90
38436;DHT22;24220;48.168;14.024;2023-08-06T09:38:41;18.70;99.90
38436;DHT22;24220;48.168;14.024;2023-08-06T09:41:08;18.70;99.90
38436;DHT22;24220;48.168;14.024;2023-08-06T09:43:43;18.80;99.90
38436;DHT22;24220;48.168;14.024;2023-08-06T09:46:13;18.80;99.90
38436;DHT22;24220;48.168;14.024;2023-08-06T09:48:45;18.80;99.90
38436;DHT22;24220;48.168;14.024;2023-08-06T09:51:14;18.80;99.90
38436;DHT22;24220;48.168;14.024;2023-08-06T09:53:43;18.90;99.90
38436;DHT22;24220;48.168;14.024;2023-08-06T09:56:14;18.90;99.90
38436;DHT22;24220;48.168;14.024;2023-08-06T09:58:42;18.90;99.90
38436;DHT22;24220;48.168;14.024;2023-08-06T10:01:11;19.00;99.90
38436;DHT22;24220;48.168;14.024;2023-08-06T10:03:42;19.00;99.90
38436;DHT22;24220;48.168;14.024;2023-08-06T10:06:11;19.00;99.90
38436;DHT22;24220;48.168;14.024;2023-08-06T10:08:39;19.10;99.90
38436;DHT22;24220;48.168;14.024;2023-08-06T10:11:09;19.20;99.90
38436;DHT22;24220;48.168;14.024;2023-08-06T10:13:40;19.20;99.90
38436;DHT22;24220;48.168;14.024;2023-08-06T10:16:10;19.30;99.90
38436;DHT22;24220;48.168;14.024;2023-08-06T10:18:41;19.30;99.90
38436;DHT22;24220;48.168;14.024;2023-08-06T10:21:11;19.40;99.90
38436;DHT22;24220;48.168;14.024;2023-08-06T10:23:40;19.40;99.70
38436;DHT22;24220;48.168;14.024;2023-08-06T10:26:08;19.50;99.30
38436;DHT22;24220;48.168;14.024;2023-08-06T10:28:38;19.50;99.40
38436;DHT22;24220;48.168;14.024;2023-08-06T10:31:06;19.60;99.10
38436;DHT22;24220;48.168;14.024;2023-08-06T10:33:47;19.60;99.60
38436;DHT22;24220;48.168;14.024;2023-08-06T10:36:17;19.70;98.50
38436;DHT22;24220;48.168;14.024;2023-08-06T10:38:48;19.80;99.00
38436;DHT22;24220;48.168;14.024;2023-08-06T10:43:51;19.90;98.70
38436;DHT22;24220;48.168;14.024;2023-08-06T10:46:26;19.90;98.90
38436;DHT22;24220;48.168;14.024;2023-08-06T10:48:56;20.00;97.60
38436;DHT22;24220;48.168;14.024;2023-08-06T10:51:26;20.00;98.00
38436;DHT22;24220;48.168;14.024;2023-08-06T10:53:54;20.10;97.80
38436;DHT22;24220;48.168;14.024;2023-08-06T10:56:25;20.10;97.30
38436;DHT22;24220;48.168;14.024;2023-08-06T10:58:56;20.20;97.00
38436;DHT22;24220;48.168;14.024;2023-08-06T11:01:24;20.30;96.80
38436;DHT22;24220;48.168;14.024;2023-08-06T11:03:56;20.30;96.30
38436;DHT22;24220;48.168;14.024;2023-08-06T11:06:28;20.40;96.00
38436;DHT22;24220;48.168;14.024;2023-08-06T11:08:56;20.40;95.40
38436;DHT22;24220;48.168;14.024;2023-08-06T11:11:25;20.50;95.30
38436;DHT22;24220;48.168;14.024;2023-08-06T11:13:53;20.50;94.00
38436;DHT22;24220;48.168;14.024;2023-08-06T11:16:22;20.60;95.10
38436;DHT22;24220;48.168;14.024;2023-08-06T11:18:55;20.60;94.70
38436;DHT22;24220;48.168;14.024;2023-08-06T11:21:25;20.60;93.90
38436;DHT22;24220;48.168;14.024;2023-08-06T11:23:53;20.70;93.70
38436;DHT22;24220;48.168;14.024;2023-08-06T11:26:23;20.70;93.70
38436;DHT22;24220;48.168;14.024;2023-08-06T11:28:54;20.70;93.50
38436;DHT22;24220;48.168;14.024;2023-08-06T11:31:22;20.70;92.70
38436;DHT22;24220;48.168;14.024;2023-08-06T11:33:51;20.70;92.70
38436;DHT22;24220;48.168;14.024;2023-08-06T11:36:31;20.80;92.40
38436;DHT22;24220;48.168;14.024;2023-08-06T11:39:02;20.80;93.40
38436;DHT22;24220;48.168;14.024;2023-08-06T11:41:32;20.80;92.90
38436;DHT22;24220;48.168;14.024;2023-08-06T11:44:03;20.90;92.60
38436;DHT22;24220;48.168;14.024;2023-08-06T11:46:50;21.00;92.30
38436;DHT22;24220;48.168;14.024;2023-08-06T11:49:19;21.00;91.60
38436;DHT22;24220;48.168;14.024;2023-08-06T11:51:48;21.10;91.40
38436;DHT22;24220;48.168;14.024;2023-08-06T11:54:16;21.10;90.40
38436;DHT22;24220;48.168;14.024;2023-08-06T11:56:46;21.10;90.70
38436;DHT22;24220;48.168;14.024;2023-08-06T11:59:13;21.00;90.30
38436;DHT22;24220;48.168;14.024;2023-08-06T12:01:46;21.00;90.60
38436;DHT22;24220;48.168;14.024;2023-08-06T12:04:13;21.00;89.90
38436;DHT22;24220;48.168;14.024;2023-08-06T12:06:44;21.00;89.40
38436;DHT22;24220;48.168;14.024;2023-08-06T12:09:11;20.90;88.40
38436;DHT22;24220;48.168;14.024;2023-08-06T12:11:39;20.90;87.10
38436;DHT22;24220;48.168;14.024;2023-08-06T12:14:08;20.90;87.10
38436;DHT22;24220;48.168;14.024;2023-08-06T12:16:36;20.90;87.50
38436;DHT22;24220;48.168;14.024;2023-08-06T12:19:03;20.80;88.80
38436;DHT22;24220;48.168;14.024;2023-08-06T12:21:31;20.80;88.60
38436;DHT22;24220;48.168;14.024;2023-08-06T12:23:58;20.70;88.80
38436;DHT22;24220;48.168;14.024;2023-08-06T12:26:26;20.70;89.30
38436;DHT22;24220;48.168;14.024;2023-08-06T12:28:55;20.70;89.90
38436;DHT22;24220;48.168;14.024;2023-08-06T12:31:24;20.70;90.90
38436;DHT22;24220;48.168;14.024;2023-08-06T12:33:51;20.70;91.80
38436;DHT22;24220;48.168;14.024;2023-08-06T12:36:19;20.80;91.90
38436;DHT22;24220;48.168;14.024;2023-08-06T12:38:46;20.90;91.70
38436;DHT22;24220;48.168;14.024;2023-08-06T12:41:13;20.90;91.40
38436;DHT22;24220;48.168;14.024;2023-08-06T12:43:43;21.00;91.50
38436;DHT22;24220;48.168;14.024;2023-08-06T12:46:10;21.10;89.30
38436;DHT22;24220;48.168;14.024;2023-08-06T12:48:38;21.10;88.70
38436;DHT22;24220;48.168;14.024;2023-08-06T12:51:06;21.20;88.50
38436;DHT22;24220;48.168;14.024;2023-08-06T12:53:36;21.10;87.20
38436;DHT22;24220;48.168;14.024;2023-08-06T12:56:06;21.20;86.60
38436;DHT22;24220;48.168;14.024;2023-08-06T12:58:36;21.20;85.50
38436;DHT22;24220;48.168;14.024;2023-08-06T13:01:04;21.30;86.50
38436;DHT22;24220;48.168;14.024;2023-08-06T13:03:33;21.40;86.10
38436;DHT22;24220;48.168;14.024;2023-08-06T13:06:03;21.60;85.80
38436;DHT22;24220;48.168;14.024;2023-08-06T13:08:31;21.60;86.10
38436;DHT22;24220;48.168;14.024;2023-08-06T13:10:58;21.70;87.00
38436;DHT22;24220;48.168;14.024;2023-08-06T13:13:28;21.80;85.10
38436;DHT22;24220;48.168;14.024;2023-08-06T13:15:55;21.90;84.50
38436;DHT22;24220;48.168;14.024;2023-08-06T13:18:25;21.90;85.30
38436;DHT22;24220;48.168;14.024;2023-08-06T13:20:56;22.00;84.90
38436;DHT22;24220;48.168;14.024;2023-08-06T13:23:23;22.00;83.50
38436;DHT22;24220;48.168;14.024;2023-08-06T13:25:53;22.00;81.70
38436;DHT22;24220;48.168;14.024;2023-08-06T13:28:21;22.00;83.20
38436;DHT22;24220;48.168;14.024;2023-08-06T13:30:48;22.00;83.00
38436;DHT22;24220;48.168;14.024;2023-08-06T13:33:18;22.00;82.70
38436;DHT22;24220;48.168;14.024;2023-08-06T13:35:45;22.00;81.30
38436;DHT22;24220;48.168;14.024;2023-08-06T13:38:16;21.90;78.90
38436;DHT22;24220;48.168;14.024;2023-08-06T13:40:43;21.90;78.30
38436;DHT22;24220;48.168;14.024;2023-08-06T13:43:11;21.90;78.60
38436;DHT22;24220;48.168;14.024;2023-08-06T13:45:38;21.80;78.90
38436;DHT22;24220;48.168;14.024;2023-08-06T13:48:06;21.80;77.70
38436;DHT22;24220;48.168;14.024;2023-08-06T13:50:36;21.70;77.80
38436;DHT22;24220;48.168;14.024;2023-08-06T13:53:07;21.70;79.70
38436;DHT22;24220;48.168;14.024;2023-08-06T13:55:34;21.60;80.50
38436;DHT22;24220;48.168;14.024;2023-08-06T13:58:01;21.50;81.30
38436;DHT22;24220;48.168;14.024;2023-08-06T14:00:29;21.50;82.30
38436;DHT22;24220;48.168;14.024;2023-08-06T14:02:58;21.40;84.10
38436;DHT22;24220;48.168;14.024;2023-08-06T14:05:26;21.30;84.60
38436;DHT22;24220;48.168;14.024;2023-08-06T14:07:53;21.30;84.50
38436;DHT22;24220;48.168;14.024;2023-08-06T14:10:20;21.30;84.10
38436;DHT22;24220;48.168;14.024;2023-08-06T14:12:48;21.20;84.00
38436;DHT22;24220;48.168;14.024;2023-08-06T14:15:35;21.20;86.30
38436;DHT22;24220;48.168;14.024;2023-08-06T14:18:07;21.10;87.50
38436;DHT22;24220;48.168;14.024;2023-08-06T14:20:40;21.10;88.40
38436;DHT22;24220;48.168;14.024;2023-08-06T14:23:08;20.90;88.10
38436;DHT22;24220;48.168;14.024;2023-08-06T14:25:41;20.80;89.30
38436;DHT22;24220;48.168;14.024;2023-08-06T14:28:08;20.80;90.10
38436;DHT22;24220;48.168;14.024;2023-08-06T14:30:40;20.70;90.70
38436;DHT22;24220;48.168;14.024;2023-08-06T14:33:07;20.60;90.80
38436;DHT22;24220;48.168;14.024;2023-08-06T14:35:56;20.60;91.10
38436;DHT22;24220;48.168;14.024;2023-08-06T14:38:25;20.50;91.00
38436;DHT22;24220;48.168;14.024;2023-08-06T14:40:53;20.50;91.30
38436;DHT22;24220;48.168;14.024;2023-08-06T14:43:20;20.50;91.10
38436;DHT22;24220;48.168;14.024;2023-08-06T14:45:48;20.50;91.40
38436;DHT22;24220;48.168;14.024;2023-08-06T14:48:15;20.50;91.20
38436;DHT22;24220;48.168;14.024;2023-08-06T14:50:44;20.50;91.40
38436;DHT22;24220;48.168;14.024;2023-08-06T14:53:12;20.50;90.90
38436;DHT22;24220;48.168;14.024;2023-08-06T14:55:40;20.50;91.20
38436;DHT22;24220;48.168;14.024;2023-08-06T14:58:08;20.50;91.30
38436;DHT22;24220;48.168;14.024;2023-08-06T15:00:36;20.50;91.00
38436;DHT22;24220;48.168;14.024;2023-08-06T15:03:03;20.50;91.20
38436;DHT22;24220;48.168;14.024;2023-08-06T15:05:31;20.50;91.20
38436;DHT22;24220;48.168;14.024;2023-08-06T15:07:59;20.50;90.70
38436;DHT22;24220;48.168;14.024;2023-08-06T15:10:26;20.50;90.30
38436;DHT22;24220;48.168;14.024;2023-08-06T15:12:56;20.50;89.90
38436;DHT22;24220;48.168;14.024;2023-08-06T15:15:26;20.50;89.00
38436;DHT22;24220;48.168;14.024;2023-08-06T15:17:54;20.50;88.20
38436;DHT22;24220;48.168;14.024;2023-08-06T15:20:22;20.50;87.90
38436;DHT22;24220;48.168;14.024;2023-08-06T15:22:50;20.40;88.70
38436;DHT22;24220;48.168;14.024;2023-08-06T15:25:18;20.30;88.90
38436;DHT22;24220;48.168;14.024;2023-08-06T15:27:45;20.30;89.70
38436;DHT22;24220;48.168;14.024;2023-08-06T15:30:12;20.20;90.10
38436;DHT22;24220;48.168;14.024;2023-08-06T15:32:40;20.10;90.40
38436;DHT22;24220;48.168;14.024;2023-08-06T15:35:12;20.00;90.80
38436;DHT22;24220;48.168;14.024;2023-08-06T15:37:39;20.00;91.30
38436;DHT22;24220;48.168;14.024;2023-08-06T15:40:12;20.00;91.50